Time;durP1;ratioP1;P1;durP2;ratioP2;P2;SDS_P1;SDS_P2;PMS_P1;PMS_P2;Temp;Humidity;BMP_temperature;BMP_pressure;BME280_temperature;BME280_humidity;BME280_pressure;Samples;Min_cycle;Max_cycle;Signal;HPM_P1;HPM_P2
2022/09/05 00:00:52;;;;;;;6.27;4.00;;;;;;;21.26;100.00;61586.06;5018118;28;20038;-88
2022/09/05 00:03:21;;;;;;;7.07;4.00;;;;;;;187.31;100.00;61586.06;5017275;28;20022;-87
2022/09/05 00:06:15;;;;;;;4.18;3.78;;;;;;;20.60;100.00;61586.06;5017214;28;20064;-87
2022/09/05 00:09:09;;;;;;;6.63;3.90;;;;;;;-144.47;100.00;61586.06;5056074;28;20057;-88
2022/09/05 00:11:44;;;;;;;5.13;4.63;;;;;;;-144.47;100.00;61586.06;5027616;28;20038;-87
2022/09/05 00:14:36;;;;;;;4.28;3.97;;;;;;;-144.47;100.00;61586.06;5037746;28;20046;-88
2022/09/05 00:17:29;;;;;;;4.50;4.03;;;;;;;-144.47;100.00;61586.06;4996983;28;20463;-88
2022/09/05 00:20:02;;;;;;;4.43;4.05;;;;;;;-144.47;100.00;61586.06;5002966;28;20034;-88
2022/09/05 00:22:50;;;;;;;6.68;3.78;;;;;;;-144.47;100.00;61586.06;5005207;28;20022;-87
2022/09/05 00:25:16;;;;;;;3.83;3.53;;;;;;;187.31;100.00;61586.06;5000857;28;20084;-86
2022/09/05 00:28:20;;;;;;;4.13;3.40;;;;;;;-144.47;100.00;61586.06;5005378;28;20034;-84
2022/09/05 00:31:28;;;;;;;5.03;3.45;;;;;;;-144.47;100.00;61586.06;5005805;28;20074;-85
2022/09/05 00:34:25;;;;;;;3.92;3.53;;;;;;;187.31;100.00;61586.06;4996420;28;20109;-84
2022/09/05 00:36:53;;;;;;;3.95;3.55;;;;;;;21.26;100.00;61586.06;5003381;28;20035;-88
2022/09/05 00:39:25;;;;;;;4.95;4.00;;;;;;;21.26;100.00;61586.06;5003403;28;20030;-88
2022/09/05 00:41:55;;;;;;;4.50;4.10;;;;;;;187.31;100.00;61586.06;5003258;28;20040;-87
2022/09/05 00:44:25;;;;;;;4.72;4.00;;;;;;;187.31;100.00;61586.06;5004295;28;20482;-86
2022/09/05 00:47:30;;;;;;;4.32;3.45;;;;;;;187.31;100.00;61586.06;5002192;28;20552;-88
2022/09/05 00:50:01;;;;;;;3.97;3.60;;;;;;;-144.47;100.00;61586.06;5018829;28;20045;-86
2022/09/05 00:52:36;;;;;;;4.47;4.07;;;;;;;-144.47;100.00;61586.06;5004038;28;20025;-89
2022/09/05 00:55:12;;;;;;;4.25;3.88;;;;;;;-144.47;100.00;61586.06;5001375;28;20490;-87
2022/09/05 00:57:50;;;;;;;5.93;3.50;;;;;;;-144.47;100.00;61586.06;4997842;28;20062;-87
2022/09/05 01:00:44;;;;;;;5.93;4.25;;;;;;;-144.47;100.00;61586.06;5000225;28;20069;-88
2022/09/05 01:03:33;;;;;;;4.60;4.20;;;;;;;-144.47;100.00;61586.06;4998561;28;20069;-91
2022/09/05 01:06:14;;;;;;;6.07;3.90;;;;;;;-144.47;100.00;61586.06;5001411;28;20035;-90
2022/09/05 01:09:06;;;;;;;4.35;3.92;;;;;;;-144.47;100.00;61586.06;5001702;28;20038;-89
2022/09/05 01:11:53;;;;;;;6.10;4.07;;;;;;;-144.47;100.00;61586.06;5003427;28;20033;-86
2022/09/05 01:14:36;;;;;;;5.40;4.18;;;;;;;-144.47;100.00;61586.06;5017460;28;20046;-85
2022/09/05 01:17:39;;;;;;;6.28;5.15;;;;;;;19.97;100.00;61586.06;5003127;28;20046;-85
2022/09/05 01:20:27;;;;;;;8.57;5.97;;;;;;;-144.47;100.00;61586.06;4998918;28;20038;-85
2022/09/05 01:23:14;;;;;;;8.38;5.15;;;;;;;19.97;100.00;61586.06;4997637;28;20419;-85
2022/09/05 01:26:01;;;;;;;5.82;4.90;;;;;;;-144.47;100.00;61586.06;5000948;28;20044;-84
2022/09/05 01:28:41;;;;;;;5.30;4.80;;;;;;;-144.47;100.00;61586.06;5000988;28;20057;-84
2022/09/05 01:31:17;;;;;;;5.15;4.65;;;;;;;-144.47;100.00;61586.06;4999844;28;20034;-84
2022/09/05 01:34:10;;;;;;;4.95;4.40;;;;;;;-144.47;100.00;61586.06;5000112;28;20045;-85
2022/09/05 01:37:04;;;;;;;5.00;4.40;;;;;;;20.05;100.00;61586.06;5013332;28;20038;-85
2022/09/05 01:39:34;;;;;;;5.82;4.40;;;;;;;-144.47;100.00;61586.06;5000323;28;20045;-85
2022/09/05 01:42:08;;;;;;;6.22;4.30;;;;;;;-144.47;100.00;61586.06;5001262;28;20058;-85
2022/09/05 01:44:46;;;;;;;11.07;5.32;;;;;;;-144.47;100.00;61586.06;5001407;28;20033;-86
2022/09/05 01:47:28;;;;;;;9.13;5.22;;;;;;;-144.47;100.00;61586.06;5007123;28;20026;-86
2022/09/05 01:50:30;;;;;;;5.40;4.90;;;;;;;-144.47;100.00;61586.06;5015575;28;20034;-83
2022/09/05 01:53:02;;;;;;;5.05;4.55;;;;;;;-144.47;100.00;61586.06;5003572;28;20042;-83
2022/09/05 01:55:57;;;;;;;4.97;4.57;;;;;;;-144.47;100.00;61586.06;5009346;28;20362;-83
2022/09/05 01:58:49;;;;;;;10.23;4.93;;;;;;;-144.47;100.00;61586.06;5003169;28;20092;-84
2022/09/05 02:01:24;;;;;;;5.78;5.20;;;;;;;-144.47;100.00;61586.06;5003066;28;20042;-83
2022/09/05 02:04:07;;;;;;;4.97;4.57;;;;;;;-144.47;100.00;61586.06;5015488;28;20502;-82
2022/09/05 02:06:59;;;;;;;5.97;4.80;;;;;;;-144.47;100.00;61586.06;5013125;28;20169;-83
2022/09/05 02:09:39;;;;;;;5.20;4.70;;;;;;;-144.47;100.00;61586.06;5009361;28;20042;-83
2022/09/05 02:12:13;;;;;;;5.38;4.88;;;;;;;-144.47;100.00;61586.06;4998106;28;20054;-83
2022/09/05 02:15:07;;;;;;;5.10;4.70;;;;;;;-144.47;100.00;61586.06;5008141;28;20034;-83
2022/09/05 02:17:41;;;;;;;5.18;4.68;;;;;;;-144.47;100.00;61586.06;5003372;28;20535;-84
2022/09/05 02:20:22;;;;;;;5.63;5.00;;;;;;;-144.47;100.00;61586.06;5016572;28;20041;-84
2022/09/05 02:22:59;;;;;;;4.90;4.47;;;;;;;19.97;100.00;61586.06;5011912;28;20022;-86
2022/09/05 02:25:57;;;;;;;5.63;4.63;;;;;;;-144.47;100.00;61586.06;5009950;28;20467;-87
2022/09/05 02:28:29;;;;;;;5.00;4.40;;;;;;;-144.47;100.00;61586.06;4997036;28;20093;-87
2022/09/05 02:31:06;;;;;;;7.05;4.50;;;;;;;19.78;100.00;61586.06;5007495;28;20198;-85
2022/09/05 02:33:46;;;;;;;6.22;4.50;;;;;;;-144.47;100.00;61586.06;5007422;28;20088;-86
2022/09/05 02:36:49;;;;;;;5.75;4.88;;;;;;;-144.47;100.00;61586.06;5009733;28;20069;-86
2022/09/05 02:39:25;;;;;;;6.88;5.30;;;;;;;-144.47;100.00;61586.06;5040913;28;20038;-86
2022/09/05 02:41:57;;;;;;;4.90;4.50;;;;;;;-144.47;100.00;61586.06;4999250;28;20112;-83
2022/09/05 02:44:49;;;;;;;6.53;4.95;;;;;;;-144.47;100.00;61586.06;4999310;28;20053;-83
2022/09/05 02:47:22;;;;;;;5.78;4.85;;;;;;;187.31;100.00;61586.06;5002110;28;20030;-82
2022/09/05 02:50:05;;;;;;;6.32;4.53;;;;;;;-144.47;100.00;61586.06;5005704;28;20390;-84
2022/09/05 02:52:34;;;;;;;5.65;4.60;;;;;;;-144.47;100.00;61586.06;5001680;28;20073;-84
2022/09/05 02:55:03;;;;;;;5.25;4.75;;;;;;;-144.47;100.00;61586.06;5004002;28;20385;-84
2022/09/05 02:57:45;;;;;;;5.07;4.40;;;;;;;-144.47;100.00;61586.06;5003392;28;20092;-84
2022/09/05 03:00:17;;;;;;;4.85;4.45;;;;;;;-144.47;100.00;61586.06;5001666;28;20129;-84
2022/09/05 03:03:01;;;;;;;6.70;4.80;;;;;;;19.97;100.00;61586.06;5003853;28;20030;-85
2022/09/05 03:05:52;;;;;;;6.13;4.63;;;;;;;-144.47;100.00;61586.06;5000594;28;20030;-84
2022/09/05 03:08:29;;;;;;;5.78;4.75;;;;;;;-144.47;100.00;61586.06;4994050;28;20530;-82
2022/09/05 03:11:03;;;;;;;8.00;4.90;;;;;;;-144.47;100.00;61586.06;4999396;28;20054;-86
2022/09/05 03:14:10;;;;;;;5.70;5.18;;;;;;;-144.47;100.00;61586.06;5005031;28;20041;-83
2022/09/05 03:16:57;;;;;;;6.25;5.65;;;;;;;-144.47;100.00;61586.06;5034627;28;20037;-85
2022/09/05 03:19:53;;;;;;;5.80;5.22;;;;;;;-144.47;100.00;61586.06;4999136;28;20034;-86
2022/09/05 03:22:56;;;;;;;7.65;5.90;;;;;;;-144.47;100.00;61586.06;4996987;28;20038;-85
2022/09/05 03:25:50;;;;;;;6.20;5.60;;;;;;;-144.47;100.00;61586.06;4998420;28;20364;-86
2022/09/05 03:28:52;;;;;;;7.90;5.60;;;;;;;-144.47;100.00;61586.06;5005919;28;20112;-87
2022/09/05 03:31:24;;;;;;;6.65;5.88;;;;;;;-144.47;100.00;61586.06;5017055;28;20502;-86
2022/09/05 03:33:53;;;;;;;8.10;5.55;;;;;;;-144.47;100.00;61586.06;5013879;28;20176;-88
2022/09/05 03:36:21;;;;;;;10.90;6.20;;;;;;;-144.47;100.00;61586.06;5013490;28;20402;-87
2022/09/05 03:39:11;;;;;;;8.60;5.60;;;;;;;-144.47;100.00;61586.06;5008848;28;20144;-87
2022/09/05 03:41:57;;;;;;;9.25;6.45;;;;;;;-144.47;100.00;61586.06;5015989;28;20037;-90
2022/09/05 03:44:45;;;;;;;6.53;5.75;;;;;;;-144.47;100.00;61586.06;5030744;28;20411;-86
2022/09/05 03:47:29;;;;;;;8.88;6.47;;;;;;;-144.47;100.00;61586.06;5017754;28;20041;-86
2022/09/05 03:50:07;;;;;;;8.88;6.15;;;;;;;-144.47;100.00;61586.06;5003086;28;20053;-84
2022/09/05 03:52:51;;;;;;;5.55;5.05;;;;;;;-144.47;100.00;61586.06;5003812;28;20482;-83
2022/09/05 03:55:29;;;;;;;6.63;5.90;;;;;;;19.97;100.00;61586.06;5028939;28;20199;-86
2022/09/05 03:58:19;;;;;;;6.50;5.85;;;;;;;19.97;100.00;61586.06;4999785;28;20494;-86
2022/09/05 04:01:17;;;;;;;7.45;6.45;;;;;;;19.97;100.00;61586.06;5008355;28;20402;-86
2022/09/05 04:03:54;;;;;;;6.53;6.03;;;;;;;19.97;100.00;61586.06;4995589;28;20046;-85
2022/09/05 04:06:22;;;;;;;9.15;6.25;;;;;;;19.97;100.00;61586.06;5012425;28;20038;-87
2022/09/05 04:09:02;;;;;;;7.53;6.90;;;;;;;-144.47;100.00;61586.06;5023711;28;20057;-87
2022/09/05 04:11:34;;;;;;;10.50;7.18;;;;;;;19.97;100.00;61586.06;5028354;28;20037;-85
2022/09/05 04:14:19;;;;;;;8.52;7.75;;;;;;;-144.47;100.00;61586.06;5020006;28;20030;-84
2022/09/05 04:17:35;;;;;;;7.40;6.68;;;;;;;186.01;100.00;61586.06;5016834;28;20399;-84
2022/09/05 04:20:09;;;;;;;8.25;6.03;;;;;;;19.97;100.00;61586.06;5016324;28;20087;-87
2022/09/05 04:22:47;;;;;;;7.57;6.68;;;;;;;19.97;100.00;61586.06;4999391;28;20491;-86
2022/09/05 04:25:46;;;;;;;7.70;6.90;;;;;;;-144.47;100.00;61586.06;5002372;28;20039;-85
2022/09/05 04:28:37;;;;;;;8.38;6.60;;;;;;;-144.47;100.00;61586.06;4995590;28;20096;-88
2022/09/05 04:31:16;;;;;;;7.55;6.85;;;;;;;19.77;100.00;81585.16;5001397;28;20491;-87
2022/09/05 04:33:54;;;;;;;8.10;7.18;;;;;;;-144.47;100.00;61586.06;5005287;28;20219;-88
2022/09/05 04:36:25;;;;;;;8.02;6.95;;;;;;;-144.47;100.00;61586.06;5001535;28;20038;-89
2022/09/05 04:39:16;;;;;;;7.68;7.05;;;;;;;187.31;100.00;61586.06;5029528;28;20117;-87
2022/09/05 04:41:50;;;;;;;6.95;6.30;;;;;;;21.26;100.00;61586.06;5017613;28;20035;-82
2022/09/05 04:44:51;;;;;;;7.40;6.72;;;;;;;-144.47;100.00;61586.06;5003472;28;20061;-81
2022/09/05 04:47:28;;;;;;;6.43;5.93;;;;;;;19.64;100.00;61586.06;5003864;28;20041;-83
2022/09/05 04:50:05;;;;;;;11.52;6.45;;;;;;;-144.47;100.00;61586.06;4997292;28;20125;-83
2022/09/05 04:52:59;;;;;;;6.35;5.78;;;;;;;-144.47;100.00;61586.06;5002566;28;20737;-85
2022/09/05 04:55:37;;;;;;;8.75;6.30;;;;;;;-144.47;100.00;61586.06;4997166;28;20038;-78
2022/09/05 04:58:21;;;;;;;6.72;6.20;;;;;;;-144.47;100.00;61586.06;5000026;28;20034;-77
2022/09/05 05:01:07;;;;;;;7.25;5.95;;;;;;;-144.47;100.00;61586.06;4999748;28;20394;-77
2022/09/05 05:03:34;;;;;;;6.65;6.05;;;;;;;19.97;100.00;61586.06;4999625;28;20130;-78
2022/09/05 05:06:33;;;;;;;6.40;5.80;;;;;;;19.60;100.00;81561.75;4998775;28;20038;-78
2022/09/05 05:09:12;;;;;;;6.10;5.35;;;;;;;19.97;100.00;61586.06;4999035;28;20030;-78
2022/09/05 05:11:52;;;;;;;5.95;5.38;;;;;;;-144.47;100.00;61586.06;4997240;28;20031;-78
2022/09/05 05:14:25;;;;;;;6.13;5.63;;;;;;;-144.47;100.00;61586.06;4999140;28;20189;-77
2022/09/05 05:17:39;;;;;;;5.43;4.78;;;;;;;-144.47;100.00;61586.06;4999031;28;20096;-78
2022/09/05 05:20:13;;;;;;;5.68;5.18;;;;;;;-144.47;100.00;61586.06;4998426;28;20078;-77
2022/09/05 05:22:49;;;;;;;5.80;5.30;;;;;;;-144.47;100.00;61586.06;5001262;28;20382;-75
2022/09/05 05:25:14;;;;;;;4.88;4.47;;;;;;;19.64;100.00;61586.06;4999825;28;20184;-76
2022/09/05 05:27:48;;;;;;;6.38;5.75;;;;;;;19.97;100.00;61586.06;5001972;28;20510;-80
2022/09/05 05:30:25;;;;;;;6.20;5.60;;;;;;;187.31;100.00;61586.06;5000322;28;20495;-84
2022/09/05 05:32:53;;;;;;;7.45;5.43;;;;;;;19.97;100.00;61586.06;4997423;28;20069;-83
2022/09/05 05:35:38;;;;;;;6.15;5.55;;;;;;;19.56;100.00;61586.06;5019106;28;20049;-83
2022/09/05 05:38:15;;;;;;;6.32;5.70;;;;;;;19.97;100.00;61586.06;4983190;28;20041;-82
2022/09/05 05:40:55;;;;;;;6.57;5.70;;;;;;;19.97;100.00;61586.06;4982462;28;20471;-82
2022/09/05 05:43:37;;;;;;;7.57;6.97;;;;;;;19.97;100.00;61586.06;4981777;28;20033;-80
2022/09/05 05:46:03;;;;;;;7.13;6.43;;;;;;;-144.47;100.00;61586.06;4985734;28;20058;-82
2022/09/05 05:48:36;;;;;;;9.15;6.38;;;;;;;-144.47;100.00;61586.06;4986175;28;20042;-81
2022/09/05 05:51:44;;;;;;;7.25;5.95;;;;;;;-144.47;100.00;61586.06;4983752;28;20031;-82
2022/09/05 05:54:34;;;;;;;7.88;6.93;;;;;;;-144.47;100.00;61586.06;4987516;28;20026;-77
2022/09/05 05:57:20;;;;;;;8.18;7.00;;;;;;;-144.47;100.00;61586.06;4992699;28;20034;-79
2022/09/05 05:59:52;;;;;;;8.20;6.88;;;;;;;19.97;100.00;61586.06;4998094;28;20838;-79
2022/09/05 06:02:46;;;;;;;8.20;7.35;;;;;;;19.97;100.00;61586.06;4990544;28;20034;-84
2022/09/05 06:05:11;;;;;;;7.45;6.50;;;;;;;19.97;100.00;61586.06;5031272;28;20125;-82
2022/09/05 06:07:52;;;;;;;8.80;6.88;;;;;;;19.70;100.00;61586.06;4996322;28;20458;-84
2022/09/05 06:10:38;;;;;;;7.60;6.93;;;;;;;-144.47;100.00;61586.06;5000295;28;20030;-80
2022/09/05 06:13:18;;;;;;;7.90;7.20;;;;;;;19.76;100.00;61586.06;4996551;28;20141;-82
2022/09/05 06:16:03;;;;;;;;;;;;;;;-144.47;100.00;61586.06;5003984;28;20038;-79
2022/09/05 06:18:40;;;;;;;9.10;8.20;;;;;;;-144.47;100.00;61586.06;4994839;28;19937;-83
2022/09/05 06:21:28;;;;;;;7.80;7.00;;;;;;;-144.47;100.00;61586.06;4995882;28;20049;-88
2022/09/05 06:23:56;;;;;;;9.48;7.60;;;;;;;21.26;100.00;61586.06;4996690;28;20038;-81
2022/09/05 06:27:00;;;;;;;8.32;7.28;;;;;;;21.26;100.00;61586.06;4993330;28;20052;-83
2022/09/05 06:29:50;;;;;;;8.70;7.80;;;;;;;-144.47;100.00;61586.06;5020740;28;20133;-84
2022/09/05 06:32:32;;;;;;;7.80;7.05;;;;;;;-144.47;100.00;61586.06;5021728;28;20029;-85
2022/09/05 06:35:16;;;;;;;7.70;6.90;;;;;;;-144.47;100.00;61586.06;5009125;28;20406;-83
2022/09/05 06:38:11;;;;;;;7.85;6.90;;;;;;;-144.47;100.00;61586.06;4994630;28;20038;-83
2022/09/05 06:40:41;;;;;;;7.93;7.10;;;;;;;-144.47;100.00;61586.06;4995827;28;20121;-85
2022/09/05 06:43:16;;;;;;;7.07;6.57;;;;;;;-144.47;100.00;61586.06;4992234;28;20034;-83
2022/09/05 06:46:11;;;;;;;8.68;6.90;;;;;;;-144.47;100.00;61586.06;4990610;28;20026;-84
2022/09/05 06:49:16;;;;;;;7.57;6.97;;;;;;;-144.47;100.00;61586.06;4993493;28;20105;-85
2022/09/05 06:52:23;;;;;;;7.90;7.20;;;;;;;-144.47;100.00;61586.06;4998116;28;20034;-84
2022/09/05 06:55:16;;;;;;;10.65;7.80;;;;;;;-144.47;100.00;61586.06;4988021;28;20495;-83
2022/09/05 06:58:05;;;;;;;8.05;7.00;;;;;;;-144.47;100.00;61586.06;4987489;28;20057;-84
2022/09/05 07:00:53;;;;;;;7.35;6.63;;;;;;;-144.47;100.00;61586.06;4993347;28;20367;-79
2022/09/05 07:03:29;;;;;;;6.70;6.10;;;;;;;-144.47;100.00;61586.06;4993010;28;20033;-80
2022/09/05 07:06:06;;;;;;;16.17;6.93;;;;;;;-144.47;100.00;61586.06;4994797;28;20043;-78
2022/09/05 07:09:11;;;;;;;26.45;8.23;;;;;;;104.25;100.00;61586.06;4993549;28;20109;-81
2022/09/05 07:12:15;;;;;;;9.52;7.40;;;;;;;187.31;100.00;61586.06;4996326;28;20047;-80
2022/09/05 07:14:53;;;;;;;7.63;6.90;;;;;;;104.25;100.00;61586.06;4992425;28;20034;-80
2022/09/05 07:17:44;;;;;;;6.93;6.43;;;;;;;104.25;100.00;61586.06;4979705;28;20030;-80
2022/09/05 07:20:24;;;;;;;9.95;7.13;;;;;;;21.91;100.00;61586.06;4979016;28;20047;-80
2022/09/05 07:22:58;;;;;;;7.53;6.93;;;;;;;187.31;100.00;61586.06;4984510;28;20035;-79
2022/09/05 07:25:29;;;;;;;9.18;7.10;;;;;;;22.04;100.00;61586.06;4993366;28;20075;-81
2022/09/05 07:28:02;;;;;;;8.65;7.95;;;;;;;104.25;100.00;61586.06;4986147;28;20038;-79
2022/09/05 07:30:32;;;;;;;8.73;7.93;;;;;;;187.31;100.00;61586.06;4985822;28;20034;-80
2022/09/05 07:33:01;;;;;;;10.60;7.15;;;;;;;-144.47;100.00;61586.06;4985632;28;20093;-81
2022/09/05 07:35:31;;;;;;;10.45;8.15;;;;;;;187.31;100.00;61586.06;4996252;28;20060;-79
2022/09/05 07:38:04;;;;;;;9.98;8.05;;;;;;;104.25;100.00;61586.06;4994087;28;20066;-78
2022/09/05 07:40:35;;;;;;;10.43;9.20;;;;;;;187.31;100.00;61586.06;4996653;28;20575;-80
2022/09/05 07:43:03;;;;;;;;;;;;;;;187.31;100.00;61586.06;4995813;28;20085;-82
2022/09/05 07:45:30;;;;;;;11.35;8.45;;;;;;;-144.47;100.00;61586.06;4995568;28;20286;-81
2022/09/05 07:48:10;;;;;;;10.05;8.95;;;;;;;187.31;100.00;61586.06;4996981;28;20107;-80
2022/09/05 07:50:48;;;;;;;8.95;8.02;;;;;;;104.25;100.00;61586.06;4996869;28;20045;-78
2022/09/05 07:53:16;;;;;;;8.50;7.68;;;;;;;-144.47;100.00;61586.06;4994225;28;20101;-81
2022/09/05 07:55:42;;;;;;;10.82;7.97;;;;;;;-144.47;100.00;61586.06;4994038;28;20026;-82
2022/09/05 07:58:13;;;;;;;9.50;8.50;;;;;;;-144.47;100.00;61586.06;4997573;28;20034;-83
2022/09/05 08:00:42;;;;;;;9.82;7.70;;;;;;;-144.47;100.00;61586.06;5029422;28;20034;-84
2022/09/05 08:03:11;;;;;;;9.13;8.43;;;;;;;-144.47;100.00;61586.06;5004247;28;20061;-81
2022/09/05 08:05:49;;;;;;;9.73;8.93;;;;;;;-144.47;100.00;61586.06;5004301;28;20072;-80
2022/09/05 08:08:18;;;;;;;10.20;9.20;;;;;;;-144.47;100.00;61586.06;5000008;28;20129;-79
2022/09/05 08:10:49;;;;;;;11.03;10.10;;;;;;;-144.47;100.00;61586.06;5003703;28;20156;-77
2022/09/05 08:13:41;;;;;;;8.95;8.20;;;;;;;-144.47;100.00;61586.06;5002868;28;20626;-78
2022/09/05 08:16:11;;;;;;;11.27;10.20;;;;;;;-144.47;100.00;61586.06;4989694;28;20057;-78
2022/09/05 08:18:44;;;;;;;10.00;9.20;;;;;;;-144.47;100.00;61586.06;5000156;28;20058;-78
2022/09/05 08:21:22;;;;;;;10.32;9.45;;;;;;;-144.47;100.00;61586.06;5016984;28;20116;-77
2022/09/05 08:23:59;;;;;;;11.63;9.90;;;;;;;-144.47;100.00;61586.06;4995780;28;20036;-78
2022/09/05 08:26:33;;;;;;;11.85;10.75;;;;;;;-144.47;100.00;61586.06;4995202;28;20080;-78
2022/09/05 08:29:42;;;;;;;11.18;10.38;;;;;;;-144.47;100.00;61586.06;5002005;28;20046;-79
2022/09/05 08:32:12;;;;;;;11.60;10.10;;;;;;;-144.47;100.00;61586.06;4997774;28;20101;-78
2022/09/05 08:34:49;;;;;;;10.43;9.27;;;;;;;-144.47;100.00;61586.06;4997045;28;20081;-78
2022/09/05 08:37:20;;;;;;;10.55;8.60;;;;;;;-144.47;100.00;61586.06;5001979;28;20041;-78
2022/09/05 08:39:52;;;;;;;9.48;8.40;;;;;;;-144.47;100.00;61586.06;4998242;28;20095;-79
2022/09/05 08:42:41;;;;;;;8.98;8.27;;;;;;;-144.47;100.00;61586.06;5001237;28;20493;-77
2022/09/05 08:45:21;;;;;;;9.27;8.48;;;;;;;-144.47;100.00;61586.06;5000705;28;20037;-78
2022/09/05 08:47:54;;;;;;;8.93;8.13;;;;;;;62.74;100.00;61586.06;4998064;28;20052;-78
2022/09/05 08:50:44;;;;;;;10.35;9.05;;;;;;;-144.47;100.00;61586.06;5005512;28;20056;-78
2022/09/05 08:53:15;;;;;;;9.73;8.25;;;;;;;-144.47;100.00;61586.06;5000887;28;20120;-76
2022/09/05 08:55:48;;;;;;;6.85;6.35;;;;;;;-144.47;100.00;61586.06;5002040;28;20045;-77
2022/09/05 08:58:28;;;;;;;8.90;8.00;;;;;;;-144.47;100.00;61586.06;5000802;28;20160;-78
2022/09/05 09:01:03;;;;;;;8.30;7.60;;;;;;;-144.47;100.00;61586.06;5000073;28;20064;-78
2022/09/05 09:04:12;;;;;;;8.45;7.72;;;;;;;-144.47;100.00;61586.06;4995313;28;20037;-78
2022/09/05 09:06:56;;;;;;;7.75;7.15;;;;;;;-144.47;100.00;61586.06;5000844;28;20498;-79
2022/09/05 09:09:56;;;;;;;8.27;7.47;;;;;;;-144.47;100.00;61586.06;4997497;28;20065;-78
2022/09/05 09:12:24;;;;;;;7.88;7.18;;;;;;;-144.47;100.00;61586.06;4995524;28;20034;-78
2022/09/05 09:15:00;;;;;;;10.45;8.52;;;;;;;-144.47;100.00;61586.06;4997174;28;20104;-78
2022/09/05 09:17:44;;;;;;;9.10;7.38;;;;;;;-144.47;100.00;61586.06;4996388;28;20030;-78
2022/09/05 09:20:48;;;;;;;8.60;7.80;;;;;;;24.45;100.00;61586.06;5002359;28;20042;-78
2022/09/05 09:23:46;;;;;;;9.00;8.27;;;;;;;-144.47;100.00;61586.06;5000662;28;20104;-78
2022/09/05 09:26:17;;;;;;;9.05;8.15;;;;;;;-144.47;100.00;61586.06;5001160;28;20050;-79
2022/09/05 09:29:15;;;;;;;11.30;8.45;;;;;;;-144.47;100.00;61586.06;4999531;28;20045;-78
2022/09/05 09:32:20;;;;;;;8.35;7.35;;;;;;;-144.47;100.00;61586.06;5000489;28;20057;-78
2022/09/05 09:35:12;;;;;;;8.07;6.88;;;;;;;-144.47;100.00;61586.06;4997847;28;20030;-78
2022/09/05 09:37:52;;;;;;;9.02;8.02;;;;;;;-144.47;100.00;61586.06;5012631;28;20133;-78
2022/09/05 09:40:21;;;;;;;8.60;7.50;;;;;;;-144.47;100.00;61586.06;4996342;28;20128;-79
2022/09/05 09:42:50;;;;;;;9.93;9.02;;;;;;;-144.47;100.00;61586.06;5001966;28;20614;-78
2022/09/05 09:45:44;;;;;;;8.90;8.10;;;;;;;-144.47;100.00;61586.06;5001523;28;20483;-78
2022/09/05 09:48:10;;;;;;;10.73;7.50;;;;;;;-144.47;100.00;61586.06;4997405;28;20034;-75
2022/09/05 09:51:09;;;;;;;9.15;8.30;;;;;;;-144.47;100.00;61586.06;5002661;28;20095;-77
2022/09/05 09:53:44;;;;;;;7.88;7.15;;;;;;;-144.47;100.00;61586.06;5029809;28;20044;-77
2022/09/05 09:56:29;;;;;;;7.38;6.78;;;;;;;-144.47;100.00;61586.06;5000332;28;20030;-77
2022/09/05 09:59:21;;;;;;;6.60;6.00;;;;;;;-144.47;100.00;61586.06;4998255;28;20076;-79
2022/09/05 10:01:55;;;;;;;7.65;6.90;;;;;;;-144.47;100.00;61586.06;5003221;28;20121;-76
2022/09/05 10:04:39;;;;;;;6.90;5.88;;;;;;;-144.47;100.00;61586.06;4994932;28;20030;-77
2022/09/05 10:07:38;;;;;;;6.82;6.13;;;;;;;-144.47;100.00;61586.06;5014098;28;20065;-77
2022/09/05 10:10:21;;;;;;;5.20;4.90;;;;;;;-144.47;100.00;61586.06;4999416;28;20093;-77
2022/09/05 10:12:55;;;;;;;7.30;5.53;;;;;;;104.25;100.00;61586.06;5000993;28;20029;-77
2022/09/05 10:15:54;;;;;;;5.90;5.40;;;;;;;104.25;100.00;61586.06;5004054;28;20145;-77
2022/09/05 10:18:38;;;;;;;8.70;5.07;;;;;;;62.74;100.00;61586.06;5004042;28;20398;-77
2022/09/05 10:21:13;;;;;;;7.28;5.20;;;;;;;62.74;100.00;61586.06;5002297;28;20057;-78
2022/09/05 10:23:45;;;;;;;6.10;4.53;;;;;;;62.74;100.00;61586.06;5003178;28;20037;-77
2022/09/05 10:26:23;;;;;;;5.03;4.57;;;;;;;104.25;100.00;61586.06;5005334;28;20394;-78
2022/09/05 10:29:20;;;;;;;7.00;5.18;;;;;;;62.74;100.00;61586.06;4995554;28;20038;-77
2022/09/05 10:31:55;;;;;;;8.00;4.88;;;;;;;62.74;100.00;61586.06;5004142;28;20045;-78
2022/09/05 10:34:24;;;;;;;9.70;5.28;;;;;;;-144.47;100.00;61586.06;5001188;28;20386;-77
2022/09/05 10:37:01;;;;;;;5.50;5.10;;;;;;;62.74;100.00;61586.06;5005857;28;20781;-77
2022/09/05 10:39:41;;;;;;;8.30;4.40;;;;;;;62.74;100.00;61586.06;4998360;28;20026;-77
2022/09/05 10:42:16;;;;;;;6.03;4.60;;;;;;;62.74;100.00;61586.06;5004269;28;20085;-78
2022/09/05 10:44:53;;;;;;;6.40;5.75;;;;;;;104.25;100.00;61586.06;5004465;28;20125;-76
2022/09/05 10:47:27;;;;;;;6.30;4.30;;;;;;;62.74;100.00;61586.06;5000142;28;20060;-76
2022/09/05 10:50:02;;;;;;;5.18;4.68;;;;;;;62.74;100.00;61586.06;5000813;28;20143;-78
2022/09/05 10:52:35;;;;;;;4.57;4.28;;;;;;;62.74;100.00;61586.06;5003248;28;20042;-77
2022/09/05 10:55:20;;;;;;;7.50;4.63;;;;;;;-144.47;100.00;61586.06;5004052;28;20437;-77
2022/09/05 10:57:58;;;;;;;6.70;4.60;;;;;;;62.74;100.00;61586.06;4994957;28;20394;-77
2022/09/05 11:00:53;;;;;;;4.53;4.13;;;;;;;-144.47;100.00;61586.06;5018111;28;20398;-77
2022/09/05 11:03:29;;;;;;;5.15;4.75;;;;;;;187.31;100.00;61586.06;4994703;28;20044;-77
2022/09/05 11:05:58;;;;;;;4.95;3.75;;;;;;;-144.47;100.00;61586.06;5003525;28;20026;-78
2022/09/05 11:08:35;;;;;;;5.25;4.50;;;;;;;-144.47;100.00;61586.06;5000726;28;20502;-78
2022/09/05 11:11:13;;;;;;;6.88;4.78;;;;;;;-144.47;100.00;61586.06;5002789;28;20030;-79
2022/09/05 11:13:48;;;;;;;4.60;4.20;;;;;;;26.27;100.00;61586.06;5001855;28;20038;-77
2022/09/05 11:16:44;;;;;;;5.20;4.20;;;;;;;-144.47;100.00;61586.06;5003809;28;20038;-76
2022/09/05 11:19:32;;;;;;;4.78;4.38;;;;;;;-144.47;100.00;61586.06;5002293;28;20125;-79
2022/09/05 11:22:06;;;;;;;4.45;3.67;;;;;;;-144.47;100.00;61586.06;5014587;28;20055;-79
2022/09/05 11:24:47;;;;;;;5.20;4.10;;;;;;;-144.47;100.00;61586.06;5003955;28;20124;-77
2022/09/05 11:27:24;;;;;;;5.88;3.78;;;;;;;-144.47;100.00;61586.06;5004264;28;20097;-78
2022/09/05 11:30:04;;;;;;;3.88;3.58;;;;;;;-144.47;100.00;61586.06;4997505;28;20037;-78
2022/09/05 11:33:03;;;;;;;5.47;3.50;;;;;;;-144.47;100.00;61586.06;5018234;28;20034;-78
2022/09/05 11:35:41;;;;;;;3.90;3.60;;;;;;;-144.47;100.00;61586.06;4999967;28;20093;-78
2022/09/05 11:38:10;;;;;;;3.60;3.33;;;;;;;-144.47;100.00;61586.06;5002639;28;20040;-78
2022/09/05 11:41:03;;;;;;;4.25;3.95;;;;;;;-144.47;100.00;61586.06;5002109;28;20069;-76
2022/09/05 11:44:06;;;;;;;6.03;3.67;;;;;;;-144.47;100.00;61586.06;4998695;28;20022;-77
2022/09/05 11:46:35;;;;;;;4.30;3.95;;;;;;;-144.47;100.00;61586.06;5000226;28;20091;-76
2022/09/05 11:49:41;;;;;;;6.72;3.50;;;;;;;-144.47;100.00;61586.06;5000693;28;20041;-79
2022/09/05 11:52:43;;;;;;;5.70;3.70;;;;;;;-144.47;100.00;61586.06;5000079;28;20058;-78
2022/09/05 11:55:46;;;;;;;3.75;3.20;;;;;;;-144.47;100.00;61586.06;4996385;28;20042;-76
2022/09/05 11:58:49;;;;;;;5.43;3.75;;;;;;;-144.47;100.00;61586.06;4996143;28;20678;-79
2022/09/05 12:01:29;;;;;;;4.68;3.58;;;;;;;-144.47;100.00;61586.06;5023549;28;20046;-78
2022/09/05 12:04:14;;;;;;;;;;;;;;;-144.47;100.00;61586.06;4993893;28;20046;-77
2022/09/05 12:07:06;;;;;;;3.72;3.20;;;;;;;26.95;100.00;61586.06;4994094;28;19918;-78
2022/09/05 12:09:49;;;;;;;5.25;3.40;;;;;;;-144.47;100.00;61586.06;4992876;28;20112;-77
2022/09/05 12:12:35;;;;;;;4.20;3.08;;;;;;;-144.47;100.00;61586.06;4990869;28;20068;-76
2022/09/05 12:15:15;;;;;;;3.45;3.10;;;;;;;-144.47;100.00;61586.06;4993507;28;20061;-77
2022/09/05 12:18:03;;;;;;;5.40;4.20;;;;;;;-144.47;100.00;61586.06;4999325;28;20038;-75
2022/09/05 12:21:00;;;;;;;6.07;3.55;;;;;;;-144.47;100.00;61586.06;4996653;28;20041;-76